Time;durP1;ratioP1;P1;durP2;ratioP2;P2;SDS_P1;SDS_P2;PMS_P1;PMS_P2;Temp;Humidity;BMP_temperature;BMP_pressure;BME280_temperature;BME280_humidity;BME280_pressure;Samples;Min_cycle;Max_cycle;Signal;HPM_P1;HPM_P2
2021/07/02 00:00:54;;;;;;;18.15;8.70;;;14.50;99.90;;;;;;5075063;28;20141;-64
2021/07/02 00:03:21;;;;;;;18.05;9.32;;;14.50;99.90;;;;;;5075297;28;20744;-63
2021/07/02 00:05:48;;;;;;;18.25;9.00;;;14.50;99.90;;;;;;5073715;28;20524;-63
2021/07/02 00:08:15;;;;;;;16.80;8.88;;;14.50;99.90;;;;;;5074863;28;20044;-63
2021/07/02 00:10:43;;;;;;;16.70;8.70;;;14.40;99.90;;;;;;5074173;28;20118;-62
2021/07/02 00:13:10;;;;;;;19.00;8.98;;;14.40;99.90;;;;;;5076652;28;20085;-63
2021/07/02 00:15:37;;;;;;;17.88;8.25;;;14.50;99.90;;;;;;5080541;28;20078;-63
2021/07/02 00:18:05;;;;;;;20.23;8.95;;;14.60;99.90;;;;;;5081221;28;20083;-62
2021/07/02 00:20:32;;;;;;;17.70;8.52;;;14.50;99.90;;;;;;5077670;28;20051;-63
2021/07/02 00:22:59;;;;;;;16.70;8.35;;;14.60;99.90;;;;;;5078024;28;21276;-62
2021/07/02 00:25:26;;;;;;;20.27;9.65;;;14.50;99.90;;;;;;5078873;28;20052;-62
2021/07/02 00:27:56;;;;;;;18.33;8.70;;;14.50;99.90;;;;;;5074996;28;20135;-63
2021/07/02 00:30:23;;;;;;;19.95;8.80;;;14.60;99.90;;;;;;5074023;28;20051;-63
2021/07/02 00:32:50;;;;;;;24.02;8.95;;;14.60;99.90;;;;;;5071383;28;20072;-62
2021/07/02 00:35:17;;;;;;;18.20;8.65;;;14.50;99.90;;;;;;5073870;28;20043;-62
2021/07/02 00:37:44;;;;;;;19.25;9.82;;;14.60;99.90;;;;;;5073533;28;20102;-63
2021/07/02 00:40:12;;;;;;;16.80;8.80;;;14.60;99.90;;;;;;5071472;28;20120;-62
2021/07/02 00:42:39;;;;;;;16.73;8.80;;;14.60;99.90;;;;;;5072540;28;20044;-62
2021/07/02 00:45:09;;;;;;;15.95;8.18;;;14.60;99.90;;;;;;5072932;28;20109;-62
2021/07/02 00:47:36;;;;;;;17.38;7.93;;;14.70;99.90;;;;;;5075102;28;20044;-62
2021/07/02 00:50:04;;;;;;;16.17;8.45;;;14.70;99.90;;;;;;5074998;28;20101;-63
2021/07/02 00:52:31;;;;;;;17.33;8.93;;;14.70;99.90;;;;;;5072067;28;20128;-63
2021/07/02 00:54:58;;;;;;;15.55;8.15;;;14.60;99.90;;;;;;5072494;28;20055;-62
2021/07/02 00:57:28;;;;;;;17.02;9.07;;;14.60;99.90;;;;;;5072921;28;20104;-62
2021/07/02 00:59:55;;;;;;;19.67;8.65;;;14.50;99.90;;;;;;5071799;28;20124;-62
2021/07/02 01:02:23;;;;;;;23.52;9.98;;;14.40;99.90;;;;;;5072304;28;21306;-62
2021/07/02 01:04:50;;;;;;;20.40;9.25;;;14.40;99.90;;;;;;5072215;28;20587;-62
2021/07/02 01:07:17;;;;;;;19.58;9.40;;;14.50;99.90;;;;;;5072469;28;20787;-62
2021/07/02 01:09:46;;;;;;;21.75;9.60;;;14.40;99.90;;;;;;5074543;28;20561;-62
2021/07/02 01:12:13;;;;;;;17.40;9.40;;;14.50;99.90;;;;;;5072341;28;20055;-62
2021/07/02 01:14:41;;;;;;;19.48;9.80;;;14.50;99.90;;;;;;5072255;28;20067;-62
2021/07/02 01:17:08;;;;;;;17.30;9.48;;;14.50;99.90;;;;;;5072748;28;20129;-62
2021/07/02 01:19:36;;;;;;;17.58;9.45;;;14.40;99.90;;;;;;5073040;28;20043;-64
2021/07/02 01:22:05;;;;;;;19.08;10.25;;;14.50;99.90;;;;;;5071066;28;20585;-62
2021/07/02 01:24:32;;;;;;;21.05;9.65;;;14.50;99.90;;;;;;5076375;28;20051;-63
2021/07/02 01:27:00;;;;;;;20.35;9.98;;;14.40;99.90;;;;;;5073550;28;20155;-62
2021/07/02 01:29:27;;;;;;;18.42;8.95;;;14.40;99.90;;;;;;5072525;28;20092;-62
2021/07/02 01:31:54;;;;;;;23.65;10.23;;;14.50;99.90;;;;;;5077320;28;20562;-65
2021/07/02 01:34:22;;;;;;;26.10;10.15;;;14.40;99.90;;;;;;5074381;28;20127;-64
2021/07/02 01:36:49;;;;;;;23.58;9.43;;;14.50;99.90;;;;;;5078435;28;20563;-65
2021/07/02 01:39:17;;;;;;;17.40;9.57;;;14.40;99.90;;;;;;5076583;28;20127;-63
2021/07/02 01:41:44;;;;;;;24.85;10.02;;;14.30;99.90;;;;;;5073832;28;20089;-62
2021/07/02 01:44:11;;;;;;;19.17;9.35;;;14.40;99.90;;;;;;5075535;28;20087;-63
2021/07/02 01:46:39;;;;;;;21.80;10.13;;;14.40;99.90;;;;;;5074843;28;20592;-62
2021/07/02 01:49:06;;;;;;;23.85;10.45;;;14.30;99.90;;;;;;5076489;28;20052;-62
2021/07/02 01:51:33;;;;;;;19.15;9.73;;;14.30;99.90;;;;;;5076171;28;20040;-65
2021/07/02 01:54:00;;;;;;;23.40;10.98;;;14.30;99.90;;;;;;5076092;28;20084;-62
2021/07/02 01:56:28;;;;;;;21.67;10.75;;;14.30;99.90;;;;;;5074768;28;20083;-65
2021/07/02 01:58:55;;;;;;;21.20;10.32;;;14.30;99.90;;;;;;5072639;28;20143;-64
2021/07/02 02:01:23;;;;;;;21.88;10.32;;;14.40;99.90;;;;;;5075380;28;20043;-64
2021/07/02 02:03:53;;;;;;;21.08;10.35;;;14.30;99.90;;;;;;5076732;28;20063;-65
2021/07/02 02:06:20;;;;;;;29.65;11.00;;;14.20;99.90;;;;;;5077636;28;20051;-64
2021/07/02 02:08:47;;;;;;;20.15;10.23;;;14.30;99.90;;;;;;5075328;28;20044;-62
2021/07/02 02:11:14;;;;;;;23.30;10.88;;;14.30;99.90;;;;;;5076316;28;20469;-64
2021/07/02 02:13:42;;;;;;;21.75;10.93;;;14.30;99.90;;;;;;5077845;28;20404;-63
2021/07/02 02:16:09;;;;;;;19.20;9.68;;;14.30;99.90;;;;;;5080068;28;20074;-62
2021/07/02 02:18:36;;;;;;;24.13;11.32;;;14.30;99.90;;;;;;5081607;28;20056;-63
2021/07/02 02:21:03;;;;;;;23.80;11.57;;;14.20;99.90;;;;;;5081151;28;20048;-63
2021/07/02 02:23:30;;;;;;;24.38;10.43;;;14.20;99.90;;;;;;5082062;27;20083;-63
2021/07/02 02:25:57;;;;;;;25.73;11.55;;;14.20;99.90;;;;;;5080522;28;20082;-63
2021/07/02 02:28:24;;;;;;;21.20;11.00;;;14.20;99.90;;;;;;5080468;28;20125;-62
2021/07/02 02:30:52;;;;;;;22.23;10.48;;;14.20;99.90;;;;;;5081219;28;20738;-62
2021/07/02 02:33:19;;;;;;;22.83;11.57;;;14.20;99.90;;;;;;5079728;28;20096;-63
2021/07/02 02:35:46;;;;;;;23.40;10.50;;;14.20;99.90;;;;;;5080806;28;20147;-63
2021/07/02 02:38:13;;;;;;;23.20;10.25;;;14.10;99.90;;;;;;5079280;28;20144;-63
2021/07/02 02:40:40;;;;;;;21.73;9.75;;;14.20;99.90;;;;;;5080823;28;20133;-62
2021/07/02 02:43:07;;;;;;;20.85;10.10;;;14.10;99.90;;;;;;5081613;28;20047;-64
2021/07/02 02:45:34;;;;;;;25.77;12.15;;;14.10;99.90;;;;;;5080517;28;20075;-64
2021/07/02 02:48:03;;;;;;;19.35;9.98;;;14.10;99.90;;;;;;5078296;28;20075;-65
2021/07/02 02:50:30;;;;;;;21.80;10.85;;;14.00;99.90;;;;;;5078366;28;20111;-63
2021/07/02 02:52:57;;;;;;;21.85;10.40;;;13.90;99.90;;;;;;5078137;27;20047;-64
2021/07/02 02:55:24;;;;;;;22.63;10.85;;;14.00;99.90;;;;;;5078215;28;20088;-65
2021/07/02 02:57:51;;;;;;;22.90;10.85;;;13.90;99.90;;;;;;5079416;28;20490;-65
2021/07/02 03:00:18;;;;;;;22.95;11.15;;;13.90;99.90;;;;;;5078190;28;20094;-65
2021/07/02 03:02:45;;;;;;;22.25;10.35;;;13.90;99.90;;;;;;5079538;28;20109;-65
2021/07/02 03:05:13;;;;;;;23.63;11.35;;;13.90;99.90;;;;;;5078505;28;20140;-65
2021/07/02 03:07:42;;;;;;;24.50;11.63;;;13.90;99.90;;;;;;5077359;28;20079;-65
2021/07/02 03:10:10;;;;;;;20.23;11.35;;;13.80;99.90;;;;;;5077734;28;20055;-65
2021/07/02 03:12:37;;;;;;;25.88;11.90;;;13.80;99.90;;;;;;5079329;28;20048;-64
2021/07/02 03:15:05;;;;;;;24.83;11.88;;;13.80;99.90;;;;;;5079275;28;20503;-65
2021/07/02 03:17:32;;;;;;;26.88;11.65;;;13.90;99.90;;;;;;5077235;28;20176;-63
2021/07/02 03:19:59;;;;;;;23.23;12.20;;;13.90;99.90;;;;;;5078109;28;20074;-65
2021/07/02 03:22:28;;;;;;;26.48;11.20;;;13.80;99.90;;;;;;5073678;28;20083;-64
2021/07/02 03:24:54;;;;;;;27.05;10.98;;;13.80;99.90;;;;;;5077037;28;20108;-64
2021/07/02 03:27:21;;;;;;;20.80;11.63;;;13.80;99.90;;;;;;5076541;28;20055;-64
2021/07/02 03:29:48;;;;;;;23.00;11.65;;;13.70;99.90;;;;;;5075085;28;20128;-65
2021/07/02 03:32:15;;;;;;;30.83;13.45;;;13.70;99.90;;;;;;5075570;28;20052;-65
2021/07/02 03:34:44;;;;;;;29.30;13.75;;;13.70;99.90;;;;;;5075440;28;20080;-64
2021/07/02 03:37:11;;;;;;;19.30;10.93;;;13.70;99.90;;;;;;5074892;28;20411;-64
2021/07/02 03:39:40;;;;;;;26.17;12.48;;;13.70;99.90;;;;;;5073935;28;20516;-65
2021/07/02 03:42:07;;;;;;;25.05;12.20;;;13.70;99.90;;;;;;5076782;28;20088;-65
2021/07/02 03:44:34;;;;;;;27.23;12.63;;;13.70;99.90;;;;;;5073942;28;20043;-65
2021/07/02 03:47:01;;;;;;;29.92;12.35;;;13.60;99.90;;;;;;5074021;28;20211;-65
2021/07/02 03:49:29;;;;;;;27.23;12.32;;;13.60;99.90;;;;;;5073222;28;20048;-62
2021/07/02 03:51:56;;;;;;;30.38;13.05;;;13.60;99.90;;;;;;5073414;28;20076;-63
2021/07/02 03:54:23;;;;;;;24.88;12.82;;;13.60;99.90;;;;;;5073236;28;20138;-64
2021/07/02 03:59:36;;;;;;;23.63;11.90;;;13.50;99.90;;;;;;5074971;28;20067;-64
2021/07/02 04:02:03;;;;;;;27.70;13.15;;;13.60;99.90;;;;;;5075710;28;20048;-63
2021/07/02 04:04:30;;;;;;;32.85;13.35;;;13.60;99.90;;;;;;5075451;28;20051;-64
2021/07/02 04:06:57;;;;;;;30.20;12.38;;;13.70;99.90;;;;;;5076984;28;20535;-65
2021/07/02 04:09:24;;;;;;;27.00;13.55;;;13.60;99.90;;;;;;5073573;28;20900;-63
2021/07/02 04:11:52;;;;;;;31.85;13.95;;;13.70;99.90;;;;;;5077663;28;20044;-62
2021/07/02 04:14:19;;;;;;;32.60;14.93;;;13.60;99.90;;;;;;5073563;28;20127;-63
2021/07/02 04:16:46;;;;;;;26.38;12.68;;;13.70;99.90;;;;;;5075757;28;20047;-62
2021/07/02 04:19:13;;;;;;;33.53;14.95;;;13.70;99.90;;;;;;5074284;28;20083;-62
2021/07/02 04:21:40;;;;;;;29.83;14.43;;;13.80;99.90;;;;;;5074729;28;20051;-63
2021/07/02 04:24:07;;;;;;;31.52;14.60;;;13.80;99.90;;;;;;5073305;28;20561;-62
2021/07/02 04:26:34;;;;;;;31.88;14.60;;;13.80;99.90;;;;;;5076796;28;20129;-63
2021/07/02 04:29:02;;;;;;;29.27;13.73;;;13.90;99.90;;;;;;5064061;28;20890;-63
2021/07/02 04:31:29;;;;;;;32.28;15.10;;;13.90;99.90;;;;;;5060787;28;20135;-63
2021/07/02 04:33:56;;;;;;;31.67;14.85;;;13.90;99.90;;;;;;5064018;28;20531;-62
2021/07/02 04:36:23;;;;;;;32.45;14.52;;;13.90;99.90;;;;;;5058093;28;20098;-63
2021/07/02 04:38:50;;;;;;;33.45;15.10;;;13.90;99.90;;;;;;5065168;28;20679;-63
2021/07/02 04:41:17;;;;;;;33.35;14.70;;;13.90;99.90;;;;;;5062705;28;20048;-63
2021/07/02 04:43:44;;;;;;;34.42;15.98;;;13.90;99.90;;;;;;5058538;28;20607;-63
2021/07/02 04:46:12;;;;;;;35.17;15.80;;;13.90;99.90;;;;;;5061228;28;20117;-63
2021/07/02 04:48:39;;;;;;;32.78;16.15;;;13.90;99.90;;;;;;5056700;28;20060;-64
2021/07/02 04:51:07;;;;;;;31.95;14.63;;;14.00;99.90;;;;;;5062148;28;20075;-63
2021/07/02 04:53:34;;;;;;;33.40;15.63;;;14.10;99.90;;;;;;5060540;28;20181;-63
2021/07/02 04:56:01;;;;;;;36.63;16.70;;;14.00;99.90;;;;;;5063045;28;20071;-64
2021/07/02 04:58:28;;;;;;;35.63;15.32;;;14.10;99.90;;;;;;5062007;28;20121;-64
2021/07/02 05:00:55;;;;;;;32.25;15.90;;;14.00;99.90;;;;;;5062011;28;20100;-63
2021/07/02 05:03:24;;;;;;;59.35;16.88;;;14.00;99.90;;;;;;5060644;28;20073;-64
2021/07/02 05:05:51;;;;;;;36.25;15.93;;;13.90;99.90;;;;;;5063654;28;21232;-64
2021/07/02 05:08:18;;;;;;;37.10;16.67;;;13.90;99.90;;;;;;5061397;28;20453;-64
2021/07/02 05:10:45;;;;;;;30.27;15.05;;;13.90;99.90;;;;;;5064792;28;20052;-64
2021/07/02 05:13:12;;;;;;;39.55;17.10;;;13.90;99.90;;;;;;5065860;28;20135;-66
2021/07/02 05:15:39;;;;;;;31.75;15.98;;;13.90;99.90;;;;;;5061748;28;20051;-66
2021/07/02 05:18:06;;;;;;;41.17;17.25;;;13.70;99.90;;;;;;5059894;28;20043;-66
2021/07/02 05:20:34;;;;;;;33.28;15.25;;;13.60;99.90;;;;;;5066678;28;20087;-66
2021/07/02 05:23:07;;;;;;;41.20;16.85;;;13.70;99.90;;;;;;5066411;28;20471;-64
2021/07/02 05:25:45;;;;;;;42.20;17.95;;;13.70;99.90;;;;;;5084572;28;20112;-65
2021/07/02 05:28:12;;;;;;;46.08;18.65;;;13.70;99.90;;;;;;5071296;28;20561;-65
2021/07/02 05:30:39;;;;;;;40.88;18.73;;;13.80;99.90;;;;;;5060116;28;20047;-65
2021/07/02 05:33:06;;;;;;;38.88;17.88;;;13.70;99.90;;;;;;5060049;28;20050;-65
2021/07/02 05:35:34;;;;;;;37.80;16.58;;;13.80;99.90;;;;;;5058206;28;20079;-65
2021/07/02 05:38:01;;;;;;;44.42;17.63;;;13.80;99.90;;;;;;5057258;28;20162;-65
2021/07/02 05:40:28;;;;;;;49.78;20.98;;;13.80;99.90;;;;;;5058841;28;20087;-65
2021/07/02 05:42:55;;;;;;;39.10;18.52;;;13.80;99.90;;;;;;5058371;28;20084;-65
2021/07/02 05:45:22;;;;;;;56.33;22.02;;;13.90;99.90;;;;;;5061056;28;20048;-65
2021/07/02 05:47:50;;;;;;;44.63;19.33;;;13.90;99.90;;;;;;5059175;28;20564;-66
2021/07/02 05:50:18;;;;;;;48.88;18.70;;;14.00;99.90;;;;;;5054290;28;20062;-66
2021/07/02 05:52:47;;;;;;;47.15;19.95;;;14.00;99.90;;;;;;5059559;28;20048;-66
2021/07/02 05:55:14;;;;;;;42.30;19.27;;;14.10;99.90;;;;;;5056270;28;20059;-66
2021/07/02 05:57:41;;;;;;;40.47;17.65;;;14.00;99.90;;;;;;5061396;28;20074;-65
2021/07/02 06:00:10;;;;;;;39.53;18.65;;;14.00;99.90;;;;;;5062686;28;20044;-66
2021/07/02 06:02:37;;;;;;;45.90;19.08;;;13.90;99.90;;;;;;5061528;28;20040;-66
2021/07/02 06:05:04;;;;;;;37.03;17.30;;;14.00;99.90;;;;;;5062491;28;20063;-66
2021/07/02 06:07:42;;;;;;;37.00;17.48;;;14.00;99.90;;;;;;5061574;28;20056;-66
2021/07/02 06:10:12;;;;;;;32.95;16.08;;;14.00;99.90;;;;;;5065163;28;20113;-66
2021/07/02 06:12:39;;;;;;;36.33;16.13;;;13.90;99.90;;;;;;5063151;28;20048;-67
2021/07/02 06:15:07;;;;;;;40.10;16.20;;;13.90;99.90;;;;;;5063263;28;20044;-67
2021/07/02 06:17:34;;;;;;;43.63;17.38;;;13.90;99.90;;;;;;5065412;28;20093;-66
2021/07/02 06:20:01;;;;;;;28.83;14.75;;;13.90;99.90;;;;;;5060819;28;20148;-65
2021/07/02 06:22:28;;;;;;;36.35;16.65;;;14.00;99.90;;;;;;5065115;28;20143;-65
2021/07/02 06:24:55;;;;;;;40.20;17.20;;;14.10;99.90;;;;;;5063248;28;20425;-65
2021/07/02 06:27:26;;;;;;;38.13;16.25;;;14.10;99.90;;;;;;5061017;28;20500;-67
2021/07/02 06:29:53;;;;;;;31.75;15.13;;;14.20;99.90;;;;;;5061498;28;20512;-66
2021/07/02 06:32:20;;;;;;;29.80;14.45;;;14.10;99.90;;;;;;5060703;28;20101;-65
2021/07/02 06:34:47;;;;;;;29.02;14.85;;;14.10;99.90;;;;;;5062166;28;20232;-66
2021/07/02 06:37:14;;;;;;;24.50;13.63;;;14.10;99.90;;;;;;5061668;28;20048;-66
2021/07/02 06:39:41;;;;;;;24.63;12.77;;;14.00;99.90;;;;;;5060621;28;20047;-67
2021/07/02 06:42:08;;;;;;;24.88;13.38;;;14.00;99.90;;;;;;5063452;28;20120;-67
2021/07/02 06:44:36;;;;;;;27.17;13.40;;;14.10;99.90;;;;;;5063639;28;20080;-67
2021/07/02 06:47:04;;;;;;;23.35;12.07;;;14.10;99.90;;;;;;5066057;28;20113;-67
2021/07/02 06:49:31;;;;;;;22.23;12.05;;;14.10;99.90;;;;;;5060550;28;20048;-68
2021/07/02 06:51:58;;;;;;;22.10;11.70;;;14.00;99.90;;;;;;5060916;28;20063;-68
2021/07/02 06:54:25;;;;;;;22.30;11.13;;;14.00;99.90;;;;;;5062040;28;20066;-68
2021/07/02 06:57:01;;;;;;;23.80;12.98;;;14.00;99.90;;;;;;5064224;28;20093;-69
2021/07/02 06:59:30;;;;;;;19.25;10.48;;;14.00;99.90;;;;;;5060879;28;21346;-67
2021/07/02 07:01:58;;;;;;;22.10;10.20;;;14.10;99.90;;;;;;5064939;28;20136;-69
2021/07/02 07:04:26;;;;;;;21.70;11.38;;;14.00;99.90;;;;;;5065658;28;20847;-66
2021/07/02 07:06:53;;;;;;;19.80;10.75;;;14.20;99.90;;;;;;5066144;28;20060;-68
2021/07/02 07:09:20;;;;;;;21.90;10.60;;;14.10;99.90;;;;;;5064093;28;20544;-67
2021/07/02 07:11:47;;;;;;;23.65;10.52;;;14.20;99.90;;;;;;5067938;28;20101;-65
2021/07/02 07:14:14;;;;;;;25.35;12.02;;;14.30;99.90;;;;;;5066941;28;20123;-65
2021/07/02 07:16:41;;;;;;;21.50;11.02;;;14.30;99.90;;;;;;5065452;28;20076;-67
2021/07/02 07:19:10;;;;;;;21.40;10.48;;;14.30;99.90;;;;;;5066124;28;20047;-67
2021/07/02 07:21:37;;;;;;;19.17;10.30;;;14.30;99.90;;;;;;5062335;28;20059;-65
2021/07/02 07:24:04;;;;;;;21.00;10.80;;;14.30;99.90;;;;;;5064863;28;20097;-65
2021/07/02 07:26:31;;;;;;;22.27;10.15;;;14.50;99.90;;;;;;5065415;28;20593;-65
2021/07/02 07:28:58;;;;;;;19.38;10.25;;;14.50;99.90;;;;;;5064420;28;20508;-66
2021/07/02 07:31:25;;;;;;;21.40;10.70;;;14.40;99.90;;;;;;5063354;28;20147;-65
2021/07/02 07:33:53;;;;;;;22.48;11.27;;;14.40;99.90;;;;;;5065493;28;20075;-67
2021/07/02 07:36:23;;;;;;;19.33;9.88;;;14.30;99.90;;;;;;5066984;28;20083;-68
2021/07/02 07:38:50;;;;;;;21.35;10.88;;;14.40;99.90;;;;;;5066184;28;20063;-67
2021/07/02 07:41:18;;;;;;;20.92;11.13;;;14.40;99.90;;;;;;5066499;28;20088;-68
2021/07/02 07:43:46;;;;;;;17.98;9.70;;;14.50;99.90;;;;;;5066070;28;20082;-66
2021/07/02 07:46:12;;;;;;;23.10;11.02;;;14.40;99.90;;;;;;5066167;28;20043;-68
2021/07/02 07:48:39;;;;;;;17.98;9.63;;;14.50;99.90;;;;;;5064935;28;20559;-67
2021/07/02 07:51:19;;;;;;;18.30;9.90;;;14.60;99.90;;;;;;5065770;28;20047;-71
2021/07/02 07:53:48;;;;;;;23.50;9.68;;;14.70;99.90;;;;;;5065802;28;20051;-68
2021/07/02 07:56:15;;;;;;;16.10;9.05;;;14.70;99.90;;;;;;5063623;28;20108;-69
2021/07/02 07:58:42;;;;;;;19.33;9.85;;;14.70;99.90;;;;;;5065244;28;20127;-68
2021/07/02 08:01:09;;;;;;;17.58;9.48;;;14.80;99.90;;;;;;5065457;28;20461;-69
2021/07/02 08:03:39;;;;;;;63.95;14.93;;;14.80;99.90;;;;;;5065220;28;20130;-67
2021/07/02 08:06:06;;;;;;;20.00;10.27;;;14.80;99.90;;;;;;5066447;28;20047;-68
2021/07/02 08:08:33;;;;;;;19.55;10.45;;;14.90;99.90;;;;;;5062351;28;20092;-68
2021/07/02 08:11:01;;;;;;;16.52;9.68;;;15.00;99.90;;;;;;5065679;28;20075;-68
2021/07/02 08:13:29;;;;;;;20.27;10.50;;;14.70;99.90;;;;;;5064197;28;20121;-69
2021/07/02 08:15:56;;;;;;;24.17;11.00;;;14.80;99.90;;;;;;5067731;28;20047;-68
2021/07/02 08:18:23;;;;;;;20.33;10.32;;;14.70;99.90;;;;;;5063645;28;20093;-70
2021/07/02 08:20:50;;;;;;;22.88;11.77;;;14.70;99.90;;;;;;5062858;28;20112;-68
2021/07/02 08:23:17;;;;;;;21.60;10.65;;;14.80;99.90;;;;;;5062861;28;20054;-68
2021/07/02 08:25:45;;;;;;;20.00;12.00;;;14.60;99.90;;;;;;5064136;28;20162;-67
2021/07/02 08:30:57;;;;;;;21.85;11.35;;;14.50;99.90;;;;;;5064552;28;20481;-67
2021/07/02 08:33:24;;;;;;;25.10;13.75;;;14.70;99.90;;;;;;5065258;28;20466;-67
2021/07/02 08:35:51;;;;;;;25.83;13.18;;;14.80;99.90;;;;;;5063240;28;20721;-67
2021/07/02 08:38:18;;;;;;;27.95;13.50;;;14.80;99.90;;;;;;5063773;28;20479;-66
2021/07/02 08:40:45;;;;;;;25.48;14.43;;;14.90;99.90;;;;;;5065382;28;20047;-66
2021/07/02 08:43:14;;;;;;;23.85;13.13;;;14.90;99.90;;;;;;5063685;28;20079;-67
2021/07/02 08:45:41;;;;;;;25.60;13.70;;;14.80;99.90;;;;;;5063762;28;20044;-66
2021/07/02 08:48:09;;;;;;;30.15;15.48;;;14.70;99.90;;;;;;5064697;28;20086;-67
2021/07/02 08:50:37;;;;;;;34.50;16.90;;;14.70;99.90;;;;;;5065872;28;20138;-66
2021/07/02 08:53:06;;;;;;;30.85;16.40;;;14.70;99.90;;;;;;5067018;28;20171;-66
2021/07/02 08:55:33;;;;;;;30.55;15.25;;;14.60;99.90;;;;;;5064054;28;20060;-65
2021/07/02 08:58:01;;;;;;;39.88;17.05;;;14.80;99.90;;;;;;5063037;28;20137;-66
2021/07/02 09:00:29;;;;;;;37.92;18.27;;;14.80;99.90;;;;;;5062410;28;20102;-66
2021/07/02 09:02:56;;;;;;;32.03;16.50;;;14.90;99.90;;;;;;5067220;28;20508;-68
2021/07/02 09:05:34;;;;;;;31.15;17.02;;;14.90;99.90;;;;;;5064311;28;20044;-67
2021/07/02 09:08:01;;;;;;;31.27;16.30;;;14.90;99.90;;;;;;5063184;28;20036;-68
2021/07/02 09:10:36;;;;;;;36.47;17.38;;;15.00;99.90;;;;;;5059982;28;20052;-66
2021/07/02 09:13:04;;;;;;;32.42;16.65;;;15.10;99.90;;;;;;5063675;28;20048;-66
2021/07/02 09:15:33;;;;;;;32.40;16.73;;;15.20;99.90;;;;;;5066444;28;20125;-66
2021/07/02 09:18:01;;;;;;;34.17;18.13;;;15.30;99.90;;;;;;5074980;28;20464;-66
2021/07/02 09:20:30;;;;;;;33.30;17.23;;;15.50;99.90;;;;;;5076504;28;20068;-66
2021/07/02 09:22:58;;;;;;;34.17;16.75;;;15.60;99.90;;;;;;5072276;28;20075;-66
2021/07/02 09:25:31;;;;;;;29.83;16.30;;;15.70;99.90;;;;;;5072600;28;20048;-66
2021/07/02 09:28:00;;;;;;;25.52;14.98;;;15.80;99.90;;;;;;5063904;28;20044;-66
2021/07/02 09:30:29;;;;;;;27.95;15.40;;;16.00;99.90;;;;;;5066771;28;20480;-65
2021/07/02 09:33:00;;;;;;;29.63;16.13;;;16.10;99.90;;;;;;5063449;28;20043;-66
2021/07/02 09:35:34;;;;;;;30.80;14.57;;;16.10;99.90;;;;;;5064889;28;20044;-66
2021/07/02 09:38:02;;;;;;;33.00;16.98;;;16.10;99.90;;;;;;5066986;28;20044;-66
2021/07/02 09:40:31;;;;;;;24.67;14.25;;;16.20;99.90;;;;;;5074217;28;20909;-66
2021/07/02 09:43:09;;;;;;;38.10;16.70;;;16.30;99.90;;;;;;5067056;28;20064;-66
2021/07/02 09:45:45;;;;;;;29.52;16.13;;;16.40;99.90;;;;;;5068125;28;20091;-66
2021/07/02 09:48:15;;;;;;;25.65;14.82;;;16.50;99.90;;;;;;5065312;28;20675;-66
2021/07/02 09:50:44;;;;;;;26.23;14.85;;;16.60;99.90;;;;;;5060986;28;20071;-66
2021/07/02 09:53:11;;;;;;;29.30;14.27;;;16.70;99.90;;;;;;5063407;28;20056;-66
2021/07/02 09:55:44;;;;;;;23.02;13.80;;;16.90;99.90;;;;;;5061767;28;20155;-66
2021/07/02 09:58:14;;;;;;;25.20;13.73;;;17.10;99.90;;;;;;5063488;28;20047;-66
2021/07/02 10:00:43;;;;;;;22.45;13.85;;;17.30;99.90;;;;;;5062700;28;20048;-66
2021/07/02 10:03:10;;;;;;;24.27;15.38;;;17.30;99.90;;;;;;5062170;28;20547;-67
2021/07/02 10:05:53;;;;;;;24.65;15.18;;;17.60;99.90;;;;;;5061175;28;20159;-66
2021/07/02 10:08:22;;;;;;;24.75;14.30;;;17.90;99.90;;;;;;5065065;28;20055;-66
2021/07/02 10:10:51;;;;;;;25.88;14.70;;;18.00;99.90;;;;;;5072998;28;20155;-66
2021/07/02 10:13:20;;;;;;;24.38;14.73;;;18.10;99.90;;;;;;5066825;28;20048;-67
2021/07/02 10:15:47;;;;;;;33.85;13.43;;;18.30;99.90;;;;;;5063067;28;20052;-66
2021/07/02 10:18:16;;;;;;;23.73;13.15;;;18.30;99.90;;;;;;5060929;28;20059;-66
2021/07/02 10:20:44;;;;;;;23.77;13.02;;;18.30;99.90;;;;;;5069462;28;20084;-66
2021/07/02 10:23:16;;;;;;;24.33;13.80;;;18.50;99.90;;;;;;5061278;28;20043;-66
2021/07/02 10:25:44;;;;;;;25.65;14.18;;;18.60;99.90;;;;;;5062387;28;20052;-68
2021/07/02 10:28:12;;;;;;;27.13;14.13;;;18.70;99.90;;;;;;5063986;28;20048;-65
2021/07/02 10:30:41;;;;;;;32.05;14.00;;;18.60;99.90;;;;;;5061913;28;20048;-66
2021/07/02 10:33:08;;;;;;;24.05;13.77;;;18.70;99.90;;;;;;5060827;28;20099;-66
2021/07/02 10:35:36;;;;;;;22.52;13.43;;;18.50;99.90;;;;;;5067434;28;20071;-66
2021/07/02 10:38:04;;;;;;;23.63;15.05;;;18.70;99.90;;;;;;5068944;28;20048;-66
2021/07/02 10:40:38;;;;;;;22.48;13.38;;;19.00;99.90;;;;;;5068497;28;20475;-67
2021/07/02 10:43:14;;;;;;;24.08;13.18;;;18.80;99.90;;;;;;5068720;28;20396;-67
2021/07/02 10:46:13;;;;;;;20.83;13.20;;;18.70;99.90;;;;;;5071907;28;20059;-67
2021/07/02 10:48:58;;;;;;;23.80;13.23;;;19.00;99.90;;;;;;5071174;28;20128;-67
2021/07/02 10:51:52;;;;;;;19.88;12.82;;;19.30;99.90;;;;;;5070791;28;20117;-68
2021/07/02 10:54:38;;;;;;;26.52;14.07;;;19.50;99.90;;;;;;5069516;28;20106;-69
2021/07/02 10:57:11;;;;;;;29.60;14.70;;;19.70;99.90;;;;;;5073051;28;20492;-67
2021/07/02 11:00:15;;;;;;;18.55;11.80;;;20.00;99.90;;;;;;5070559;28;20056;-67
2021/07/02 11:02:43;;;;;;;19.15;10.88;;;19.90;99.90;;;;;;5073352;28;20508;-68
2021/07/02 11:05:32;;;;;;;20.45;11.27;;;19.80;99.90;;;;;;5072328;28;20116;-67
2021/07/02 11:08:00;;;;;;;19.42;11.48;;;19.70;99.90;;;;;;5066770;28;20048;-68
2021/07/02 11:10:47;;;;;;;18.55;11.23;;;19.80;99.90;;;;;;5070834;28;20055;-68
2021/07/02 11:13:16;;;;;;;;;;;19.90;99.90;;;;;;5072411;28;20047;-68
2021/07/02 11:16:03;;;;;;;18.83;10.68;;;19.80;99.90;;;;;;5068422;28;20012;-68
2021/07/02 11:18:40;;;;;;;24.02;12.25;;;20.00;99.90;;;;;;5072276;28;20097;-69
2021/07/02 11:21:14;;;;;;;17.65;10.63;;;19.80;99.90;;;;;;5073357;28;20126;-67
2021/07/02 11:23:42;;;;;;;19.25;10.05;;;19.60;99.90;;;;;;5072530;28;20052;-68
2021/07/02 11:26:12;;;;;;;13.32;8.40;;;19.70;99.90;;;;;;5071441;28;20413;-67
2021/07/02 11:28:52;;;;;;;15.02;9.27;;;19.70;99.90;;;;;;5070378;28;20048;-68
2021/07/02 11:31:34;;;;;;;16.60;9.57;;;19.80;99.90;;;;;;5071632;28;20051;-67
2021/07/02 11:34:14;;;;;;;15.77;9.35;;;19.90;99.90;;;;;;5072220;28;20047;-68
2021/07/02 11:37:01;;;;;;;20.00;10.38;;;19.90;99.90;;;;;;5073275;28;20044;-70
2021/07/02 11:39:29;;;;;;;14.70;9.52;;;20.10;99.90;;;;;;5074017;28;20086;-68
2021/07/02 11:42:08;;;;;;;14.70;9.48;;;20.20;99.90;;;;;;5072322;28;20332;-67
2021/07/02 11:44:36;;;;;;;12.98;8.63;;;20.20;99.90;;;;;;5070454;28;20047;-68
2021/07/02 11:47:04;;;;;;;15.80;9.98;;;20.30;99.90;;;;;;5070140;28;20093;-66
2021/07/02 11:49:31;;;;;;;16.65;9.98;;;20.00;99.90;;;;;;5067544;28;20052;-65
2021/07/02 11:51:58;;;;;;;17.33;10.00;;;19.80;99.90;;;;;;5070969;28;20048;-65
2021/07/02 11:54:25;;;;;;;17.73;9.77;;;19.60;99.90;;;;;;5069902;28;20477;-65
2021/07/02 11:56:53;;;;;;;15.98;8.82;;;19.70;99.90;;;;;;5069697;28;20215;-66
2021/07/02 11:59:21;;;;;;;14.70;9.27;;;19.40;99.90;;;;;;5067883;28;20135;-65
2021/07/02 12:01:54;;;;;;;14.95;8.73;;;19.60;99.90;;;;;;5071191;28;20051;-64
2021/07/02 12:04:22;;;;;;;16.38;10.02;;;20.10;99.90;;;;;;5072348;28;20059;-63
2021/07/02 12:06:51;;;;;;;12.95;8.70;;;20.60;99.90;;;;;;5071157;28;20071;-63
2021/07/02 12:09:19;;;;;;;11.73;8.05;;;21.00;99.90;;;;;;5072276;28;20079;-64
2021/07/02 12:11:51;;;;;;;13.48;8.10;;;21.10;99.90;;;;;;5071365;28;20159;-65
2021/07/02 12:14:21;;;;;;;11.77;7.93;;;21.50;99.90;;;;;;5069809;28;21481;-65
2021/07/02 12:16:58;;;;;;;15.30;9.18;;;21.90;99.90;;;;;;5071898;28;20124;-65
2021/07/02 12:19:27;;;;;;;15.38;9.80;;;22.10;99.90;;;;;;5078829;28;20109;-64
2021/07/02 12:21:56;;;;;;;14.55;8.77;;;22.40;99.90;;;;;;5079221;28;20055;-65
2021/07/02 12:24:25;;;;;;;17.20;9.18;;;22.20;99.90;;;;;;5078556;28;21149;-64
2021/07/02 12:26:54;;;;;;;14.95;8.48;;;22.00;99.90;;;;;;5070596;28;20044;-64
2021/07/02 12:29:22;;;;;;;16.60;8.85;;;21.80;99.90;;;;;;5072275;28;20134;-64
2021/07/02 12:31:52;;;;;;;15.15;9.23;;;21.70;99.90;;;;;;5070229;28;20051;-65
2021/07/02 12:34:21;;;;;;;13.38;8.52;;;21.90;99.90;;;;;;5072063;28;20084;-65
2021/07/02 12:36:56;;;;;;;14.38;8.23;;;21.80;99.90;;;;;;5073088;28;20055;-66
2021/07/02 12:39:26;;;;;;;13.98;7.35;;;21.80;99.90;;;;;;5071630;28;20148;-66
2021/07/02 12:41:53;;;;;;;14.25;8.82;;;21.70;99.90;;;;;;5072401;28;20549;-64
2021/07/02 12:44:22;;;;;;;14.43;8.93;;;21.80;99.90;;;;;;5069686;28;21509;-68